Time;durP1;ratioP1;P1;durP2;ratioP2;P2;SDS_P1;SDS_P2;PMS_P1;PMS_P2;Temp;Humidity;BMP_temperature;BMP_pressure;BME280_temperature;BME280_humidity;BME280_pressure;Samples;Min_cycle;Max_cycle;Signal;HPM_P1;HPM_P2
2022/01/29 00:00:00;;;;;;;37.60;12.63;;;;;;;;;;4989624;28;20060;-70
2022/01/29 00:02:26;;;;;;;34.85;12.65;;;;;;;;;;4987724;28;20030;-70
2022/01/29 00:04:51;;;;;;;38.38;13.15;;;;;;;;;;4987419;28;20045;-71
2022/01/29 00:07:16;;;;;;;38.00;13.30;;;;;;;;;;4975421;28;20039;-70
2022/01/29 00:09:44;;;;;;;38.63;13.82;;;;;;;;;;4976677;28;20034;-70
2022/01/29 00:12:10;;;;;;;35.63;12.52;;;;;;;;;;4983247;28;20164;-70
2022/01/29 00:14:36;;;;;;;42.72;13.77;;;;;;;;;;4973693;28;20528;-70
2022/01/29 00:17:02;;;;;;;45.25;15.60;;;;;;;;;;4980570;28;20064;-70
2022/01/29 00:19:28;;;;;;;39.50;13.45;;;;;;;;;;4987786;28;20066;-70
2022/01/29 00:21:53;;;;;;;38.38;13.07;;;;;;;;;;4987649;28;20022;-71
2022/01/29 00:24:18;;;;;;;37.50;13.68;;;;;;;;;;4985231;28;20052;-70
2022/01/29 00:26:43;;;;;;;42.85;14.70;;;;;;;;;;4986904;28;20201;-70
2022/01/29 00:29:17;;;;;;;37.40;13.93;;;;;;;;;;4985973;28;20096;-70
2022/01/29 00:31:42;;;;;;;39.00;13.48;;;;;;;;;;4986160;28;20126;-70
2022/01/29 00:34:08;;;;;;;39.42;13.30;;;;;;;;;;4981725;28;20198;-70
2022/01/29 00:36:33;;;;;;;38.88;13.63;;;;;;;;;;4982399;28;20036;-70
2022/01/29 00:38:58;;;;;;;36.17;13.18;;;;;;;;;;4981358;28;20037;-71
2022/01/29 00:41:24;;;;;;;45.20;16.42;;;;;;;;;;4979680;28;20043;-70
2022/01/29 00:43:49;;;;;;;41.47;14.50;;;;;;;;;;4980811;28;20519;-70
2022/01/29 00:46:14;;;;;;;43.38;16.38;;;;;;;;;;4980958;28;20492;-70
2022/01/29 00:48:39;;;;;;;41.53;15.57;;;;;;;;;;4987240;28;20077;-70
2022/01/29 00:51:05;;;;;;;39.63;14.52;;;;;;;;;;4972402;28;20092;-70
2022/01/29 00:53:30;;;;;;;40.63;15.40;;;;;;;;;;4985077;28;20045;-70
2022/01/29 00:55:55;;;;;;;41.08;14.10;;;;;;;;;;4973675;28;20109;-70
2022/01/29 00:58:21;;;;;;;40.03;13.02;;;;;;;;;;5005087;28;20042;-70
2022/01/29 01:00:46;;;;;;;37.13;13.55;;;;;;;;;;4989940;28;20504;-70
2022/01/29 01:03:12;;;;;;;50.25;15.65;;;;;;;;;;4992882;28;20061;-70
2022/01/29 01:05:37;;;;;;;44.75;15.68;;;;;;;;;;4976078;28;20050;-70
2022/01/29 01:08:03;;;;;;;43.38;14.32;;;;;;;;;;4986063;28;20125;-70
2022/01/29 01:10:28;;;;;;;47.72;15.00;;;;;;;;;;4985711;28;20038;-70
2022/01/29 01:12:54;;;;;;;39.55;13.52;;;;;;;;;;4985366;28;20026;-70
2022/01/29 01:15:19;;;;;;;35.58;12.88;;;;;;;;;;4983265;28;20417;-70
2022/01/29 01:17:44;;;;;;;40.95;14.57;;;;;;;;;;4983452;28;20073;-70
2022/01/29 01:20:10;;;;;;;42.90;15.05;;;;;;;;;;4982043;28;20031;-70
2022/01/29 01:22:36;;;;;;;40.55;14.18;;;;;;;;;;4990567;28;20397;-71
2022/01/29 01:25:01;;;;;;;36.63;14.48;;;;;;;;;;4987863;28;20448;-70
2022/01/29 01:27:27;;;;;;;39.80;13.32;;;;;;;;;;4984247;28;20113;-70
2022/01/29 01:29:52;;;;;;;38.10;13.77;;;;;;;;;;4987262;28;20045;-70
2022/01/29 01:32:17;;;;;;;35.03;13.07;;;;;;;;;;4981420;28;20061;-70
2022/01/29 01:34:48;;;;;;;41.60;14.00;;;;;;;;;;4986045;28;20050;-70
2022/01/29 01:37:27;;;;;;;37.00;12.77;;;;;;;;;;4980934;28;20451;-70
2022/01/29 01:39:52;;;;;;;39.47;13.95;;;;;;;;;;4983487;28;20054;-70
2022/01/29 01:42:17;;;;;;;42.13;14.60;;;;;;;;;;4986621;28;20058;-70
2022/01/29 01:44:46;;;;;;;36.58;14.57;;;;;;;;;;4986440;28;20150;-70
2022/01/29 01:47:14;;;;;;;42.33;14.90;;;;;;;;;;4982319;28;20552;-70
2022/01/29 01:49:39;;;;;;;34.95;12.82;;;;;;;;;;4990161;28;20030;-70
2022/01/29 01:52:09;;;;;;;38.20;14.85;;;;;;;;;;4982712;28;20037;-70
2022/01/29 01:54:35;;;;;;;35.03;12.70;;;;;;;;;;4989344;28;20077;-70
2022/01/29 01:57:03;;;;;;;41.08;14.18;;;;;;;;;;4985256;28;20477;-70
2022/01/29 01:59:29;;;;;;;36.72;13.82;;;;;;;;;;4997727;28;20065;-70
2022/01/29 02:01:54;;;;;;;42.42;14.75;;;;;;;;;;4990709;28;20062;-71
2022/01/29 02:04:20;;;;;;;37.17;13.80;;;;;;;;;;4990717;28;20134;-70
2022/01/29 02:06:46;;;;;;;35.53;12.50;;;;;;;;;;4988582;28;20050;-70
2022/01/29 02:09:14;;;;;;;39.10;12.40;;;;;;;;;;4988850;28;20533;-71
2022/01/29 02:11:49;;;;;;;35.33;13.15;;;;;;;;;;4973058;28;20523;-70
2022/01/29 02:14:15;;;;;;;28.67;11.88;;;;;;;;;;4990234;28;20046;-71
2022/01/29 02:16:40;;;;;;;32.65;11.95;;;;;;;;;;4982192;28;20047;-70
2022/01/29 02:19:05;;;;;;;35.17;12.48;;;;;;;;;;4980802;28;20034;-69
2022/01/29 02:21:31;;;;;;;34.50;12.30;;;;;;;;;;4994083;28;20081;-70
2022/01/29 02:23:56;;;;;;;33.70;12.95;;;;;;;;;;4974247;28;20169;-70
2022/01/29 02:26:21;;;;;;;38.80;14.63;;;;;;;;;;4966410;28;20205;-70
2022/01/29 02:28:47;;;;;;;39.45;13.60;;;;;;;;;;4986313;28;20034;-70
2022/01/29 02:31:12;;;;;;;39.65;14.05;;;;;;;;;;4986115;28;20599;-70
2022/01/29 02:33:40;;;;;;;39.45;13.65;;;;;;;;;;4985713;28;20030;-70
2022/01/29 02:36:06;;;;;;;36.97;12.95;;;;;;;;;;4992843;28;20042;-70
2022/01/29 02:38:31;;;;;;;35.85;12.50;;;;;;;;;;4994376;28;20053;-69
2022/01/29 02:41:01;;;;;;;42.97;13.85;;;;;;;;;;4988271;28;20046;-70
2022/01/29 02:43:34;;;;;;;35.28;12.88;;;;;;;;;;4987780;28;20038;-70
2022/01/29 02:46:19;;;;;;;32.97;12.43;;;;;;;;;;4978747;28;20018;-70
2022/01/29 02:48:49;;;;;;;49.10;15.60;;;;;;;;;;5016521;28;20678;-70
2022/01/29 02:51:16;;;;;;;38.17;13.45;;;;;;;;;;5006074;28;20038;-70
2022/01/29 02:53:41;;;;;;;34.53;13.43;;;;;;;;;;5008357;28;20580;-70
2022/01/29 02:56:09;;;;;;;33.65;12.05;;;;;;;;;;5006320;28;20120;-70
2022/01/29 02:58:34;;;;;;;38.25;13.00;;;;;;;;;;5008782;28;20123;-70
2022/01/29 03:01:00;;;;;;;37.55;13.18;;;;;;;;;;5009527;28;20495;-70
2022/01/29 03:03:25;;;;;;;24.98;10.57;;;;;;;;;;5002745;28;20121;-70
2022/01/29 03:05:51;;;;;;;33.30;11.88;;;;;;;;;;4990555;28;20037;-70
2022/01/29 03:08:17;;;;;;;29.73;10.90;;;;;;;;;;4986750;28;20034;-70
2022/01/29 03:10:43;;;;;;;32.63;12.38;;;;;;;;;;4985686;28;20026;-70
2022/01/29 03:13:09;;;;;;;37.45;12.55;;;;;;;;;;4989095;28;20022;-70
2022/01/29 03:15:34;;;;;;;34.58;12.88;;;;;;;;;;4986297;28;20038;-70
2022/01/29 03:17:59;;;;;;;33.78;12.55;;;;;;;;;;4989119;28;20096;-71
2022/01/29 03:20:25;;;;;;;34.20;13.05;;;;;;;;;;4990233;28;20077;-70
2022/01/29 03:22:50;;;;;;;31.77;11.70;;;;;;;;;;4989376;28;20035;-70
2022/01/29 03:25:16;;;;;;;32.17;12.07;;;;;;;;;;4981625;28;20050;-70
2022/01/29 03:27:42;;;;;;;33.28;11.73;;;;;;;;;;4989282;28;20500;-70
2022/01/29 03:30:08;;;;;;;34.25;13.50;;;;;;;;;;4984250;28;20041;-70
2022/01/29 03:32:34;;;;;;;32.45;10.77;;;;;;;;;;4996467;28;20087;-70
2022/01/29 03:34:59;;;;;;;31.35;11.30;;;;;;;;;;4984191;28;20042;-71
2022/01/29 03:37:24;;;;;;;32.97;11.48;;;;;;;;;;4985361;28;20076;-71
2022/01/29 03:39:51;;;;;;;29.40;10.95;;;;;;;;;;4982760;28;20105;-70
2022/01/29 03:42:16;;;;;;;35.65;12.85;;;;;;;;;;4987765;28;20061;-70
2022/01/29 03:44:42;;;;;;;36.78;13.18;;;;;;;;;;5002719;28;20408;-70
2022/01/29 03:47:08;;;;;;;34.42;11.63;;;;;;;;;;4975383;28;20047;-70
2022/01/29 03:49:33;;;;;;;37.13;12.50;;;;;;;;;;4989164;28;20041;-71
2022/01/29 03:51:59;;;;;;;35.03;12.55;;;;;;;;;;4986530;28;20037;-70
2022/01/29 03:54:24;;;;;;;40.78;14.60;;;;;;;;;;4985512;28;20042;-71
2022/01/29 03:56:49;;;;;;;27.42;10.25;;;;;;;;;;4986624;28;20038;-71
2022/01/29 03:59:15;;;;;;;41.42;13.40;;;;;;;;;;4983928;28;20519;-70
2022/01/29 04:01:40;;;;;;;37.20;12.13;;;;;;;;;;4988942;28;20037;-71
2022/01/29 04:04:06;;;;;;;34.35;11.23;;;;;;;;;;4986061;28;20447;-70
2022/01/29 04:06:31;;;;;;;36.75;11.35;;;;;;;;;;4985272;28;20149;-71
2022/01/29 04:08:57;;;;;;;35.72;13.38;;;;;;;;;;4987091;28;20034;-70
2022/01/29 04:11:23;;;;;;;33.50;11.82;;;;;;;;;;4985144;28;20128;-70
2022/01/29 04:13:49;;;;;;;26.63;10.05;;;;;;;;;;4984772;28;20145;-70
2022/01/29 04:16:16;;;;;;;33.88;11.52;;;;;;;;;;4983840;28;20046;-70
2022/01/29 04:18:42;;;;;;;33.10;12.07;;;;;;;;;;4984937;28;20044;-71
2022/01/29 04:21:07;;;;;;;40.95;14.68;;;;;;;;;;4983916;28;20038;-70
2022/01/29 04:23:34;;;;;;;47.55;15.25;;;;;;;;;;4985929;28;20444;-71
2022/01/29 04:26:01;;;;;;;36.83;12.38;;;;;;;;;;4984892;28;20535;-70
2022/01/29 04:28:31;;;;;;;35.17;12.65;;;;;;;;;;4988410;28;20045;-71
2022/01/29 04:31:01;;;;;;;32.00;10.70;;;;;;;;;;4988531;28;20081;-70
2022/01/29 04:33:30;;;;;;;38.13;11.75;;;;;;;;;;4986916;28;20122;-71
2022/01/29 04:35:58;;;;;;;37.50;11.77;;;;;;;;;;4983290;28;20054;-70
2022/01/29 04:38:24;;;;;;;28.10;11.15;;;;;;;;;;4986188;28;20571;-71
2022/01/29 04:40:49;;;;;;;37.22;14.15;;;;;;;;;;5000724;28;20706;-71
2022/01/29 04:43:14;;;;;;;38.45;13.35;;;;;;;;;;4990472;28;20109;-70
2022/01/29 04:45:40;;;;;;;36.67;13.00;;;;;;;;;;4982741;28;20022;-71
2022/01/29 04:48:06;;;;;;;38.90;13.32;;;;;;;;;;4983108;28;20043;-71
2022/01/29 04:50:31;;;;;;;35.88;13.10;;;;;;;;;;4977776;28;20535;-71
2022/01/29 04:52:56;;;;;;;33.65;13.50;;;;;;;;;;4985453;28;20404;-71
2022/01/29 04:55:22;;;;;;;43.25;13.15;;;;;;;;;;4984705;28;20030;-70
2022/01/29 04:57:47;;;;;;;35.60;12.63;;;;;;;;;;4981178;28;20027;-71
2022/01/29 05:00:21;;;;;;;35.33;13.32;;;;;;;;;;4980313;28;20397;-70
2022/01/29 05:02:48;;;;;;;36.40;13.40;;;;;;;;;;4982533;28;20035;-71
2022/01/29 05:05:13;;;;;;;41.55;14.70;;;;;;;;;;4981636;28;20640;-70
2022/01/29 05:07:38;;;;;;;37.80;13.38;;;;;;;;;;4981750;28;20059;-71
2022/01/29 05:10:04;;;;;;;30.95;11.95;;;;;;;;;;4984467;28;20054;-71
2022/01/29 05:12:41;;;;;;;41.35;13.75;;;;;;;;;;4988532;28;20054;-71
2022/01/29 05:15:12;;;;;;;23.02;9.77;;;;;;;;;;4982303;28;20042;-71
2022/01/29 05:28:33;;;;;;;38.60;13.32;;;;;;;;;;4976468;28;20088;-69
2022/01/29 05:30:58;;;;;;;44.13;14.98;;;;;;;;;;4981957;28;20042;-71
2022/01/29 05:33:23;;;;;;;39.95;12.48;;;;;;;;;;4978148;28;20051;-70
2022/01/29 05:35:49;;;;;;;37.08;14.05;;;;;;;;;;4982045;28;20046;-71
2022/01/29 05:38:14;;;;;;;36.03;13.23;;;;;;;;;;4977406;28;20417;-70
2022/01/29 05:40:39;;;;;;;39.85;14.25;;;;;;;;;;4978611;28;20038;-70
2022/01/29 05:43:05;;;;;;;39.28;14.85;;;;;;;;;;4986208;28;20151;-70
2022/01/29 05:45:30;;;;;;;42.58;14.45;;;;;;;;;;4992228;28;20030;-70
2022/01/29 05:47:55;;;;;;;50.83;13.07;;;;;;;;;;4987402;28;20041;-71
2022/01/29 05:50:21;;;;;;;39.67;13.07;;;;;;;;;;4987483;28;20542;-71
2022/01/29 05:52:46;;;;;;;39.03;13.63;;;;;;;;;;5003221;28;20026;-71
2022/01/29 05:55:11;;;;;;;37.22;14.55;;;;;;;;;;4983004;28;20406;-70
2022/01/29 05:57:37;;;;;;;38.15;14.93;;;;;;;;;;4976526;28;20034;-71
2022/01/29 06:00:04;;;;;;;38.50;13.88;;;;;;;;;;4987753;28;20107;-71
2022/01/29 06:02:29;;;;;;;43.88;14.68;;;;;;;;;;4989757;28;20114;-71
2022/01/29 06:04:55;;;;;;;34.28;13.05;;;;;;;;;;4981855;28;20644;-71
2022/01/29 06:07:20;;;;;;;39.60;14.30;;;;;;;;;;4983943;28;20038;-71
2022/01/29 06:09:45;;;;;;;33.28;13.13;;;;;;;;;;4985774;28;20022;-71
2022/01/29 06:12:10;;;;;;;37.83;13.73;;;;;;;;;;4981912;28;20038;-71
2022/01/29 06:14:36;;;;;;;36.75;12.93;;;;;;;;;;4973508;28;20041;-71
2022/01/29 06:17:01;;;;;;;35.42;12.55;;;;;;;;;;4984477;28;20050;-71
2022/01/29 06:19:26;;;;;;;30.98;12.13;;;;;;;;;;4992794;28;20482;-70
2022/01/29 06:21:52;;;;;;;35.45;13.13;;;;;;;;;;4981628;28;20045;-71
2022/01/29 06:24:17;;;;;;;33.70;11.40;;;;;;;;;;4984650;28;20039;-70
2022/01/29 06:26:43;;;;;;;34.08;12.38;;;;;;;;;;4982771;28;20047;-71
2022/01/29 06:29:08;;;;;;;37.90;13.05;;;;;;;;;;4999130;28;20030;-71
2022/01/29 06:31:33;;;;;;;33.90;12.75;;;;;;;;;;4982372;28;20052;-70
2022/01/29 06:33:59;;;;;;;30.38;11.73;;;;;;;;;;4991507;28;20049;-71
2022/01/29 06:36:24;;;;;;;31.52;11.52;;;;;;;;;;4989760;28;20042;-71
2022/01/29 06:38:49;;;;;;;28.60;11.30;;;;;;;;;;4974747;28;20097;-71
2022/01/29 06:41:14;;;;;;;32.05;11.68;;;;;;;;;;4980156;28;20608;-71
2022/01/29 06:43:40;;;;;;;23.05;10.13;;;;;;;;;;4980083;28;20046;-70
2022/01/29 06:46:05;;;;;;;28.15;9.35;;;;;;;;;;4984261;28;21013;-71
2022/01/29 06:48:30;;;;;;;28.00;10.70;;;;;;;;;;5013022;28;20041;-71
2022/01/29 06:50:56;;;;;;;26.67;9.23;;;;;;;;;;5008078;28;20034;-71
2022/01/29 06:53:21;;;;;;;26.70;10.00;;;;;;;;;;5006423;28;20492;-71
2022/01/29 06:55:46;;;;;;;20.80;9.48;;;;;;;;;;5006196;28;20034;-71
2022/01/29 06:58:12;;;;;;;25.30;10.30;;;;;;;;;;5008186;28;20033;-70
2022/01/29 07:00:37;;;;;;;26.55;10.10;;;;;;;;;;5009883;28;20071;-71
2022/01/29 07:03:03;;;;;;;27.58;10.10;;;;;;;;;;5003227;28;20050;-70
2022/01/29 07:05:28;;;;;;;26.60;9.50;;;;;;;;;;5005119;28;20049;-71
2022/01/29 07:07:53;;;;;;;22.15;8.35;;;;;;;;;;5004303;28;20046;-71
2022/01/29 07:10:19;;;;;;;22.65;8.98;;;;;;;;;;5007653;28;20137;-71
2022/01/29 07:12:44;;;;;;;21.88;9.23;;;;;;;;;;5009772;28;20030;-71
2022/01/29 07:15:11;;;;;;;24.73;9.38;;;;;;;;;;5006844;28;20052;-70
2022/01/29 07:17:37;;;;;;;22.17;8.77;;;;;;;;;;5003178;28;20075;-70
2022/01/29 07:20:04;;;;;;;24.55;9.00;;;;;;;;;;5003926;28;20081;-71
2022/01/29 07:22:29;;;;;;;23.67;8.48;;;;;;;;;;5007616;28;20096;-70
2022/01/29 07:24:55;;;;;;;20.75;8.85;;;;;;;;;;5008417;28;20018;-71
2022/01/29 07:27:20;;;;;;;21.15;7.80;;;;;;;;;;5008632;28;20045;-71
2022/01/29 07:29:45;;;;;;;20.45;7.72;;;;;;;;;;5020777;28;20037;-70
2022/01/29 07:32:11;;;;;;;18.23;7.43;;;;;;;;;;5007951;28;20091;-71
2022/01/29 07:34:37;;;;;;;17.45;7.03;;;;;;;;;;4999663;28;20058;-71
2022/01/29 07:37:03;;;;;;;17.15;7.13;;;;;;;;;;5001597;28;20408;-71
2022/01/29 07:39:29;;;;;;;16.73;6.93;;;;;;;;;;5007344;28;20069;-71
2022/01/29 07:41:55;;;;;;;17.30;6.60;;;;;;;;;;5004377;28;20074;-70
2022/01/29 07:44:21;;;;;;;16.00;6.57;;;;;;;;;;5004957;28;20045;-70
2022/01/29 07:46:46;;;;;;;17.30;7.03;;;;;;;;;;5004663;28;20045;-70
2022/01/29 07:49:12;;;;;;;19.20;7.10;;;;;;;;;;5002883;28;20561;-71
2022/01/29 07:51:38;;;;;;;20.52;7.10;;;;;;;;;;5003004;28;20483;-71
2022/01/29 07:54:04;;;;;;;14.88;6.82;;;;;;;;;;5002773;28;20046;-71
2022/01/29 07:56:29;;;;;;;15.32;6.05;;;;;;;;;;5006425;28;20136;-71
2022/01/29 07:58:55;;;;;;;19.00;7.25;;;;;;;;;;5006001;28;20232;-71
2022/01/29 08:01:20;;;;;;;15.35;6.68;;;;;;;;;;5003682;28;20061;-70
2022/01/29 08:03:50;;;;;;;15.07;6.18;;;;;;;;;;5004694;28;20084;-70
2022/01/29 08:06:17;;;;;;;18.08;7.53;;;;;;;;;;4989941;28;20744;-70
2022/01/29 08:08:43;;;;;;;14.65;6.13;;;;;;;;;;5008003;28;20060;-70
2022/01/29 08:11:10;;;;;;;15.10;6.60;;;;;;;;;;5007473;28;20034;-71
2022/01/29 08:13:36;;;;;;;17.40;6.80;;;;;;;;;;4990070;28;20660;-71
2022/01/29 08:16:01;;;;;;;17.50;6.88;;;;;;;;;;5005668;28;20056;-71
2022/01/29 08:18:27;;;;;;;17.70;7.53;;;;;;;;;;5008083;28;20046;-71
2022/01/29 08:20:52;;;;;;;19.38;7.22;;;;;;;;;;5003774;28;20045;-72
2022/01/29 08:23:18;;;;;;;20.05;7.32;;;;;;;;;;5007614;28;20045;-72
2022/01/29 08:25:43;;;;;;;18.08;7.45;;;;;;;;;;5005053;28;20040;-72
2022/01/29 08:28:08;;;;;;;16.05;7.47;;;;;;;;;;5006323;28;20053;-71
2022/01/29 08:30:34;;;;;;;19.63;8.10;;;;;;;;;;5007249;28;20551;-72
2022/01/29 08:33:00;;;;;;;17.85;6.72;;;;;;;;;;5003580;28;20045;-71
2022/01/29 08:35:25;;;;;;;14.88;6.07;;;;;;;;;;4994936;28;20065;-71
2022/01/29 08:37:51;;;;;;;22.48;7.68;;;;;;;;;;4984067;28;20038;-70
2022/01/29 08:40:16;;;;;;;16.25;8.13;;;;;;;;;;5002037;28;20042;-70
2022/01/29 08:42:42;;;;;;;19.10;7.20;;;;;;;;;;4987256;28;20527;-71
2022/01/29 08:45:09;;;;;;;19.52;7.60;;;;;;;;;;4984706;28;21491;-71
2022/01/29 08:47:34;;;;;;;17.40;5.90;;;;;;;;;;4981125;28;20045;-71
2022/01/29 08:50:03;;;;;;;15.70;6.68;;;;;;;;;;4983689;28;20043;-70
2022/01/29 08:52:28;;;;;;;14.63;6.78;;;;;;;;;;4982871;28;20514;-70
2022/01/29 08:54:54;;;;;;;13.70;5.60;;;;;;;;;;4983259;28;20088;-70
2022/01/29 08:57:19;;;;;;;15.20;7.00;;;;;;;;;;4982058;28;20520;-71
2022/01/29 08:59:44;;;;;;;16.50;7.10;;;;;;;;;;4976584;28;20046;-71
2022/01/29 09:02:10;;;;;;;13.65;6.53;;;;;;;;;;5002599;28;20542;-71
2022/01/29 09:04:35;;;;;;;16.50;6.80;;;;;;;;;;5006383;28;20081;-71
2022/01/29 09:07:00;;;;;;;22.38;8.60;;;;;;;;;;5005909;28;20081;-71
2022/01/29 09:09:26;;;;;;;15.48;6.57;;;;;;;;;;4998964;28;20434;-70
2022/01/29 09:11:53;;;;;;;17.48;6.47;;;;;;;;;;5003714;28;20991;-71
2022/01/29 09:14:20;;;;;;;17.77;7.22;;;;;;;;;;4997774;28;20132;-71
2022/01/29 09:16:45;;;;;;;20.10;7.57;;;;;;;;;;5005146;28;20408;-71
2022/01/29 09:19:11;;;;;;;21.33;8.02;;;;;;;;;;5003086;28;20034;-71
2022/01/29 09:21:37;;;;;;;18.75;7.18;;;;;;;;;;5008397;28;20036;-70
2022/01/29 09:24:02;;;;;;;16.70;6.50;;;;;;;;;;5007499;28;20045;-70
2022/01/29 09:26:28;;;;;;;15.68;6.85;;;;;;;;;;5004298;28;20066;-71
2022/01/29 09:28:53;;;;;;;14.80;6.47;;;;;;;;;;4985755;28;20108;-70
2022/01/29 09:31:18;;;;;;;15.13;6.72;;;;;;;;;;5009551;28;20033;-70
2022/01/29 09:33:44;;;;;;;10.70;5.57;;;;;;;;;;4991979;28;20038;-71
2022/01/29 09:36:09;;;;;;;16.42;6.07;;;;;;;;;;4991091;28;20042;-71
2022/01/29 09:38:35;;;;;;;12.73;5.78;;;;;;;;;;4989569;28;20522;-71
2022/01/29 09:41:00;;;;;;;16.80;7.25;;;;;;;;;;4987954;28;20543;-70
2022/01/29 09:43:26;;;;;;;17.48;6.10;;;;;;;;;;4990064;28;20046;-71
2022/01/29 09:45:53;;;;;;;14.30;6.82;;;;;;;;;;5005148;28;20499;-70
2022/01/29 09:48:22;;;;;;;10.52;5.60;;;;;;;;;;5007144;28;20049;-71
2022/01/29 09:50:50;;;;;;;11.07;5.07;;;;;;;;;;4992094;28;20042;-70
2022/01/29 09:53:16;;;;;;;10.68;5.35;;;;;;;;;;4985465;28;20050;-70
2022/01/29 09:55:43;;;;;;;11.40;4.72;;;;;;;;;;4967349;28;20056;-70
2022/01/29 09:58:09;;;;;;;10.52;5.72;;;;;;;;;;4983923;28;20026;-70
2022/01/29 10:00:35;;;;;;;14.23;6.57;;;;;;;;;;4989553;28;20030;-71
2022/01/29 10:03:09;;;;;;;10.73;5.75;;;;;;;;;;4986431;28;21798;-70
2022/01/29 10:05:40;;;;;;;13.13;7.05;;;;;;;;;;4984221;28;20072;-70
2022/01/29 10:08:07;;;;;;;15.75;7.47;;;;;;;;;;4984525;28;20045;-70
2022/01/29 10:10:39;;;;;;;11.43;5.90;;;;;;;;;;4989829;28;20034;-70
2022/01/29 10:13:33;;;;;;;11.82;5.80;;;;;;;;;;4988749;28;20026;-70
2022/01/29 10:16:17;;;;;;;15.90;6.00;;;;;;;;;;4985148;28;20046;-70
2022/01/29 10:18:48;;;;;;;13.85;6.07;;;;;;;;;;4984328;28;20121;-70
2022/01/29 10:21:23;;;;;;;13.98;6.53;;;;;;;;;;4971854;28;20475;-71
2022/01/29 10:23:57;;;;;;;10.63;5.35;;;;;;;;;;4982200;28;20104;-71
2022/01/29 10:26:28;;;;;;;12.88;6.20;;;;;;;;;;4986091;28;20049;-70
2022/01/29 10:28:54;;;;;;;17.83;6.78;;;;;;;;;;4983131;28;20046;-70
2022/01/29 10:31:19;;;;;;;13.77;6.88;;;;;;;;;;4989831;28;20030;-70
2022/01/29 10:33:44;;;;;;;14.52;6.07;;;;;;;;;;4989947;28;20036;-70
2022/01/29 10:36:17;;;;;;;14.65;5.55;;;;;;;;;;4988238;28;20043;-70
2022/01/29 10:38:48;;;;;;;12.02;6.13;;;;;;;;;;4985936;28;20042;-70
2022/01/29 10:41:27;;;;;;;11.45;5.40;;;;;;;;;;4992881;28;20565;-70
2022/01/29 10:43:54;;;;;;;11.98;6.15;;;;;;;;;;5005195;28;20096;-70
2022/01/29 10:46:29;;;;;;;11.68;5.53;;;;;;;;;;5002698;28;20034;-70
2022/01/29 10:48:55;;;;;;;12.80;5.55;;;;;;;;;;5004753;28;21121;-70
2022/01/29 10:51:21;;;;;;;13.73;5.80;;;;;;;;;;5002845;28;20467;-69
2022/01/29 10:53:46;;;;;;;13.52;5.93;;;;;;;;;;5004889;28;20508;-70
2022/01/29 10:56:11;;;;;;;13.15;6.03;;;;;;;;;;5003451;28;20561;-70
2022/01/29 10:58:44;;;;;;;14.48;6.50;;;;;;;;;;5005947;28;20037;-70
2022/01/29 11:01:20;;;;;;;14.10;6.47;;;;;;;;;;5007815;28;20068;-70
2022/01/29 11:03:46;;;;;;;13.30;4.93;;;;;;;;;;5008552;28;20021;-70
2022/01/29 11:06:20;;;;;;;12.75;5.57;;;;;;;;;;5000352;28;20045;-70
2022/01/29 11:08:46;;;;;;;8.88;4.75;;;;;;;;;;4985641;28;20031;-70
2022/01/29 11:11:13;;;;;;;11.68;5.80;;;;;;;;;;4985073;28;20038;-70
2022/01/29 11:13:40;;;;;;;10.15;4.85;;;;;;;;;;4983184;28;20036;-70
2022/01/29 11:16:06;;;;;;;9.48;4.47;;;;;;;;;;4984929;28;20402;-70
2022/01/29 11:18:34;;;;;;;9.75;4.75;;;;;;;;;;4989118;28;20105;-71
2022/01/29 11:21:01;;;;;;;9.23;4.35;;;;;;;;;;4976905;28;20038;-70
2022/01/29 11:23:28;;;;;;;9.63;4.57;;;;;;;;;;4985550;28;20532;-70
2022/01/29 11:25:59;;;;;;;7.45;3.95;;;;;;;;;;4984213;28;20042;-71
2022/01/29 11:28:27;;;;;;;8.40;3.70;;;;;;;;;;4984270;28;20755;-70
2022/01/29 11:31:12;;;;;;;7.68;3.50;;;;;;;;;;4985791;28;20026;-69
2022/01/29 11:33:59;;;;;;;6.95;3.42;;;;;;;;;;4989904;28;20085;-70
2022/01/29 11:36:47;;;;;;;9.05;3.58;;;;;;;;;;5003165;28;20125;-71
2022/01/29 11:39:28;;;;;;;6.70;3.13;;;;;;;;;;5001965;28;20710;-71
2022/01/29 11:42:12;;;;;;;6.90;3.15;;;;;;;;;;5005779;28;21072;-70
2022/01/29 11:44:39;;;;;;;6.80;3.25;;;;;;;;;;5002563;28;20415;-70
2022/01/29 11:47:26;;;;;;;8.85;3.67;;;;;;;;;;5003474;28;20042;-70
2022/01/29 11:50:13;;;;;;;8.68;3.05;;;;;;;;;;5003928;28;20038;-70
2022/01/29 11:52:53;;;;;;;9.07;3.08;;;;;;;;;;5005108;28;20078;-70
2022/01/29 11:55:33;;;;;;;6.05;3.08;;;;;;;;;;5003673;28;20036;-70
2022/01/29 11:58:18;;;;;;;6.53;2.78;;;;;;;;;;5003327;28;20021;-70
2022/01/29 12:00:45;;;;;;;11.77;3.40;;;;;;;;;;5002779;28;20743;-70
2022/01/29 12:03:39;;;;;;;11.05;2.78;;;;;;;;;;5002338;28;21007;-70
2022/01/29 12:06:32;;;;;;;;;;;;;;;;;;4951290;28;20054;-70
2022/01/29 12:09:01;;;;;;;5.10;2.42;;;;;;;;;;4984352;28;20181;-70
2022/01/29 12:11:27;;;;;;;7.65;2.80;;;;;;;;;;4983564;28;20550;-70
2022/01/29 12:14:15;;;;;;;8.10;2.65;;;;;;;;;;4986160;28;20030;-70
2022/01/29 12:16:47;;;;;;;6.82;2.90;;;;;;;;;;4977803;28;20046;-69
2022/01/29 12:19:40;;;;;;;7.68;3.20;;;;;;;;;;4981031;28;20400;-70
2022/01/29 12:22:12;;;;;;;9.48;4.20;;;;;;;;;;4984731;28;20088;-69
2022/01/29 12:24:40;;;;;;;5.57;2.88;;;;;;;;;;4981989;28;20836;-68
2022/01/29 12:27:06;;;;;;;7.32;3.50;;;;;;;;;;4987709;28;20125;-68
2022/01/29 12:29:31;;;;;;;7.80;3.65;;;;;;;;;;4998102;28;20528;-68
2022/01/29 12:31:58;;;;;;;6.75;3.63;;;;;;;;;;4980036;28;20052;-68
2022/01/29 12:34:25;;;;;;;8.85;3.80;;;;;;;;;;4983508;28;20038;-70
2022/01/29 12:36:51;;;;;;;5.65;2.63;;;;;;;;;;4981795;28;20041;-68
2022/01/29 12:39:24;;;;;;;6.63;3.50;;;;;;;;;;4984386;28;20038;-68
2022/01/29 12:42:05;;;;;;;4.70;2.63;;;;;;;;;;4983105;28;20133;-69
2022/01/29 12:44:31;;;;;;;5.00;2.83;;;;;;;;;;4984491;28;20053;-69
2022/01/29 12:46:56;;;;;;;6.72;2.85;;;;;;;;;;4984893;28;20038;-69
2022/01/29 12:49:22;;;;;;;5.90;2.83;;;;;;;;;;4984341;28;20041;-69
2022/01/29 12:51:55;;;;;;;4.60;3.03;;;;;;;;;;4984068;28;20453;-69
2022/01/29 12:54:22;;;;;;;5.72;2.60;;;;;;;;;;4984134;28;20042;-69
2022/01/29 12:56:48;;;;;;;5.13;2.58;;;;;;;;;;4986241;28;20047;-69
2022/01/29 12:59:15;;;;;;;6.10;3.40;;;;;;;;;;4986568;28;20031;-69
2022/01/29 13:01:43;;;;;;;8.43;4.35;;;;;;;;;;4989984;28;20109;-69
2022/01/29 13:04:13;;;;;;;6.13;3.17;;;;;;;;;;4997853;28;20025;-69
2022/01/29 13:06:38;;;;;;;8.10;3.35;;;;;;;;;;4991886;28;20093;-69
2022/01/29 13:09:18;;;;;;;6.28;3.70;;;;;;;;;;4985000;28;20090;-69
2022/01/29 13:11:44;;;;;;;11.23;4.30;;;;;;;;;;4985324;28;20073;-69
2022/01/29 13:14:14;;;;;;;6.68;3.50;;;;;;;;;;4982617;28;20062;-69
2022/01/29 13:16:39;;;;;;;10.40;3.78;;;;;;;;;;4986806;28;20042;-69
2022/01/29 13:19:05;;;;;;;8.57;4.32;;;;;;;;;;4988743;28;20041;-69
2022/01/29 13:21:33;;;;;;;7.88;4.32;;;;;;;;;;4988217;28;20058;-69
2022/01/29 13:24:19;;;;;;;7.70;3.90;;;;;;;;;;4986053;28;20054;-68
2022/01/29 13:26:57;;;;;;;7.68;3.33;;;;;;;;;;4984932;28;20125;-69
2022/01/29 13:29:32;;;;;;;5.53;3.40;;;;;;;;;;4985109;28;20174;-68
2022/01/29 13:31:57;;;;;;;5.93;3.80;;;;;;;;;;5001945;28;20047;-69
2022/01/29 13:34:35;;;;;;;5.07;3.40;;;;;;;;;;4985787;28;20030;-69
2022/01/29 13:37:00;;;;;;;7.80;3.35;;;;;;;;;;4985490;28;20042;-69
2022/01/29 13:39:27;;;;;;;5.38;3.75;;;;;;;;;;5001762;28;20038;-67
2022/01/29 13:42:15;;;;;;;7.68;4.10;;;;;;;;;;5005254;28;20311;-69
2022/01/29 13:45:00;;;;;;;7.03;4.30;;;;;;;;;;5004472;28;20121;-69
2022/01/29 13:47:25;;;;;;;6.30;4.35;;;;;;;;;;5006382;28;20415;-68
2022/01/29 13:49:53;;;;;;;6.00;3.83;;;;;;;;;;5004861;28;20797;-68
2022/01/29 13:52:22;;;;;;;9.30;3.40;;;;;;;;;;5007243;28;20091;-69
2022/01/29 13:54:48;;;;;;;8.90;4.07;;;;;;;;;;5000560;28;20037;-68
2022/01/29 13:57:14;;;;;;;5.55;3.00;;;;;;;;;;5003821;28;20037;-69
2022/01/29 13:59:41;;;;;;;6.82;3.47;;;;;;;;;;4991633;28;20492;-69
2022/01/29 14:02:07;;;;;;;6.03;3.17;;;;;;;;;;4983548;28;20026;-68
2022/01/29 14:04:37;;;;;;;9.23;4.13;;;;;;;;;;4982671;28;20101;-69
2022/01/29 14:07:09;;;;;;;6.53;3.17;;;;;;;;;;4987023;28;20042;-69
2022/01/29 14:09:45;;;;;;;7.70;3.30;;;;;;;;;;4985591;28;20045;-68
2022/01/29 14:12:14;;;;;;;7.22;3.60;;;;;;;;;;4983948;28;20043;-69
2022/01/29 14:14:53;;;;;;;6.32;3.45;;;;;;;;;;4982463;28;20042;-68
2022/01/29 14:17:21;;;;;;;4.57;2.45;;;;;;;;;;4987214;28;20053;-69
2022/01/29 14:19:52;;;;;;;7.10;3.45;;;;;;;;;;4984109;28;20058;-67
2022/01/29 14:22:20;;;;;;;5.43;2.83;;;;;;;;;;5001057;28;20116;-69
2022/01/29 14:24:45;;;;;;;6.93;2.58;;;;;;;;;;4986338;28;20042;-69
2022/01/29 14:27:11;;;;;;;9.70;3.00;;;;;;;;;;4982728;28;20092;-69
2022/01/29 14:29:38;;;;;;;7.13;2.83;;;;;;;;;;4980426;28;20038;-68
2022/01/29 14:32:04;;;;;;;7.50;3.20;;;;;;;;;;4985136;28;20038;-69
2022/01/29 14:34:29;;;;;;;6.40;2.83;;;;;;;;;;4985302;28;20045;-69
2022/01/29 14:36:57;;;;;;;6.60;3.20;;;;;;;;;;4983956;28;20542;-69
2022/01/29 14:39:27;;;;;;;5.75;3.15;;;;;;;;;;4986847;28;20038;-68